createdAt,value
2022-11-30T00:00:41.448Z,100.97
2022-11-30T00:03:08.710Z,88.22
2022-11-30T00:05:35.520Z,60.15
2022-11-30T00:08:02.530Z,112.00
2022-11-30T00:10:30.451Z,79.90
2022-11-30T00:12:57.455Z,72.05
2022-11-30T00:15:24.612Z,131.75
2022-11-30T00:17:57.226Z,195.63
2022-11-30T00:20:24.642Z,96.00
2022-11-30T00:22:51.463Z,109.78
2022-11-30T00:25:18.455Z,72.68
2022-11-30T00:27:45.452Z,67.07
2022-11-30T00:30:12.782Z,56.47
2022-11-30T00:32:39.576Z,65.55
2022-11-30T00:35:06.783Z,93.90
2022-11-30T00:37:35.435Z,105.95
2022-11-30T00:40:02.092Z,86.90
2022-11-30T00:42:31.212Z,99.40
2022-11-30T00:44:58.123Z,77.72
2022-11-30T00:47:25.133Z,103.18
2022-11-30T00:49:51.765Z,70.10
2022-11-30T00:52:18.444Z,58.25
2022-11-30T00:54:45.833Z,46.85
2022-11-30T00:57:12.963Z,63.08
2022-11-30T00:59:39.659Z,79.22
2022-11-30T01:02:06.679Z,118.88
2022-11-30T01:04:33.689Z,128.27
2022-11-30T01:07:00.775Z,73.78
2022-11-30T01:09:27.784Z,120.18
2022-11-30T01:11:54.813Z,50.67
2022-11-30T01:14:21.908Z,56.08
2022-11-30T01:16:54.773Z,50.72
2022-11-30T01:19:23.608Z,86.13
2022-11-30T01:21:50.256Z,62.65
2022-11-30T01:24:17.013Z,62.25
2022-11-30T01:26:44.084Z,43.58
2022-11-30T01:29:11.114Z,44.80
2022-11-30T01:31:37.826Z,45.92
2022-11-30T01:34:04.964Z,54.95
2022-11-30T01:36:32.379Z,41.83
2022-11-30T01:38:59.322Z,42.25
2022-11-30T01:41:30.643Z,46.83
2022-11-30T01:44:20.090Z,47.72
2022-11-30T01:46:54.735Z,44.22
2022-11-30T01:49:34.740Z,46.80
2022-11-30T01:52:05.923Z,45.60
2022-11-30T01:54:38.746Z,49.20
2022-11-30T01:57:19.925Z,36.10
2022-11-30T01:59:48.355Z,49.13
2022-11-30T02:02:15.674Z,46.20
2022-11-30T02:04:42.949Z,51.72
2022-11-30T02:07:10.992Z,61.10
2022-11-30T02:09:44.121Z,59.30
2022-11-30T02:12:30.591Z,79.75
2022-11-30T02:15:00.292Z,73.40
2022-11-30T02:18:07.546Z,52.40
2022-11-30T02:21:06.301Z,49.83
2022-11-30T02:23:54.900Z,57.95
2022-11-30T02:26:56.389Z,62.42
2022-11-30T02:29:36.708Z,65.47
2022-11-30T02:32:22.144Z,60.25
2022-11-30T02:34:50.417Z,71.70
2022-11-30T02:37:19.179Z,61.10
2022-11-30T02:39:46.249Z,62.90
2022-11-30T02:42:14.711Z,45.92
2022-11-30T02:44:45.403Z,57.90
2022-11-30T02:47:32.769Z,57.75
2022-11-30T02:50:04.436Z,57.20
2022-11-30T02:52:32.528Z,62.97
2022-11-30T02:55:06.317Z,57.70
2022-11-30T02:57:33.639Z,58.08
2022-11-30T03:00:02.635Z,61.72
2022-11-30T03:02:30.517Z,57.20
2022-11-30T03:04:57.464Z,58.33
2022-11-30T03:07:24.289Z,51.80
2022-11-30T03:09:51.265Z,51.50
2022-11-30T03:12:18.295Z,55.60
2022-11-30T03:14:45.635Z,48.88
2022-11-30T03:17:12.825Z,46.40
2022-11-30T03:19:39.769Z,56.00
2022-11-30T03:22:06.813Z,43.30
2022-11-30T03:24:33.989Z,46.50
2022-11-30T03:27:01.091Z,52.00
2022-11-30T03:29:27.753Z,63.28
2022-11-30T03:31:54.759Z,62.78
2022-11-30T03:34:22.594Z,64.75
2022-11-30T03:36:49.488Z,76.38
2022-11-30T03:39:16.160Z,62.92
2022-11-30T03:41:43.318Z,73.15
2022-11-30T03:44:10.687Z,77.45
2022-11-30T03:46:37.822Z,80.75
2022-11-30T03:49:04.755Z,78.20
2022-11-30T03:51:31.901Z,98.97
2022-11-30T03:53:58.930Z,96.45
2022-11-30T03:56:25.934Z,93.43
2022-11-30T03:58:53.088Z,103.30
2022-11-30T04:01:23.401Z,104.68
2022-11-30T04:03:51.729Z,113.43
2022-11-30T04:06:19.375Z,101.90
2022-11-30T04:08:46.749Z,108.70
2022-11-30T04:11:13.994Z,92.72
2022-11-30T04:13:41.745Z,109.35
2022-11-30T04:16:09.121Z,104.88
2022-11-30T04:18:37.513Z,91.90
2022-11-30T04:21:06.596Z,99.25
2022-11-30T04:23:36.275Z,106.93
2022-11-30T04:26:08.607Z,111.55
2022-11-30T04:28:36.087Z,103.60
2022-11-30T04:31:03.177Z,110.65
2022-11-30T04:33:30.225Z,104.35
2022-11-30T04:36:00.224Z,93.82
2022-11-30T04:40:54.739Z,77.43
2022-11-30T04:43:22.055Z,86.68
2022-11-30T04:45:49.366Z,78.63
2022-11-30T04:48:17.244Z,77.47
2022-11-30T04:50:44.971Z,87.45
2022-11-30T04:53:11.971Z,81.07
2022-11-30T04:55:39.291Z,76.55
2022-11-30T04:58:07.024Z,78.80
2022-11-30T05:00:35.192Z,136.88
2022-11-30T05:03:02.400Z,163.55
2022-11-30T05:05:29.321Z,109.35
2022-11-30T05:07:58.043Z,82.68
2022-11-30T05:10:25.296Z,83.35
2022-11-30T05:12:52.400Z,248.32
2022-11-30T05:15:19.412Z,726.53
2022-11-30T05:17:46.381Z,539.03
2022-11-30T05:20:13.710Z,540.40
2022-11-30T05:22:40.479Z,337.80
2022-11-30T05:25:08.295Z,498.42
2022-11-30T05:27:35.410Z,488.30
2022-11-30T05:30:03.196Z,328.10
2022-11-30T05:32:29.882Z,281.50
2022-11-30T05:34:57.425Z,328.30
2022-11-30T05:37:24.392Z,205.13
2022-11-30T05:39:51.407Z,140.93
2022-11-30T05:42:18.498Z,198.63
2022-11-30T05:44:46.050Z,313.83
2022-11-30T05:47:13.242Z,279.58
2022-11-30T05:49:40.004Z,149.27
2022-11-30T05:52:07.226Z,307.92
2022-11-30T05:54:34.685Z,82.20
2022-11-30T05:57:01.888Z,221.48
2022-11-30T05:59:28.544Z,252.90
2022-11-30T06:01:55.473Z,306.67
2022-11-30T06:04:22.500Z,389.30
2022-11-30T06:06:49.610Z,159.73
2022-11-30T06:09:16.568Z,445.98
2022-11-30T06:11:43.489Z,298.90
2022-11-30T06:14:10.504Z,360.15
2022-11-30T06:16:39.668Z,214.75
2022-11-30T06:19:06.656Z,199.90
2022-11-30T06:21:33.795Z,346.20
2022-11-30T06:24:00.940Z,314.88
2022-11-30T06:26:27.817Z,198.77
2022-11-30T06:28:54.877Z,352.85
2022-11-30T06:31:21.959Z,378.48
2022-11-30T06:33:49.278Z,338.25
2022-11-30T06:36:23.878Z,333.17
2022-11-30T06:38:51.628Z,273.02
2022-11-30T06:41:19.257Z,257.13
2022-11-30T06:43:46.365Z,247.95
2022-11-30T06:46:13.494Z,334.48
2022-11-30T06:48:40.500Z,151.23
2022-11-30T06:51:09.172Z,264.17
2022-11-30T06:53:36.758Z,215.23
2022-11-30T06:56:10.477Z,183.77
2022-11-30T06:58:41.096Z,287.13
2022-11-30T07:01:10.823Z,284.23
2022-11-30T07:03:38.363Z,245.15
2022-11-30T07:06:10.766Z,240.70
2022-11-30T07:08:38.627Z,201.50
2022-11-30T07:11:06.513Z,308.20
2022-11-30T07:13:34.865Z,304.58
2022-11-30T07:16:06.527Z,198.25
2022-11-30T07:18:34.143Z,149.70
2022-11-30T07:21:02.316Z,151.98
2022-11-30T07:23:54.049Z,208.38
2022-11-30T07:26:23.243Z,325.33
2022-11-30T07:28:54.498Z,188.32
2022-11-30T07:31:24.008Z,328.00
2022-11-30T07:33:51.644Z,207.80
2022-11-30T07:36:20.953Z,152.85
2022-11-30T07:38:48.175Z,101.55
2022-11-30T07:41:14.952Z,297.30
2022-11-30T07:43:42.109Z,240.85
2022-11-30T07:46:12.276Z,317.80
2022-11-30T07:48:39.360Z,273.00
2022-11-30T07:51:10.216Z,326.48
2022-11-30T07:53:37.024Z,272.20
2022-11-30T07:56:06.833Z,172.57
2022-11-30T07:58:33.948Z,303.92
2022-11-30T08:01:09.080Z,302.48
2022-11-30T08:03:37.705Z,386.77
2022-11-30T08:06:07.656Z,291.60
2022-11-30T08:08:41.161Z,312.58
2022-11-30T08:11:09.879Z,312.08
2022-11-30T08:13:36.991Z,209.18
2022-11-30T08:16:15.615Z,213.35
2022-11-30T08:18:43.038Z,357.40
2022-11-30T08:21:12.105Z,208.95
2022-11-30T08:23:54.015Z,188.75
2022-11-30T08:26:22.992Z,138.73
2022-11-30T08:28:51.129Z,145.43
2022-11-30T08:31:19.392Z,197.02
2022-11-30T08:33:46.964Z,267.45
2022-11-30T08:36:19.794Z,267.85
2022-11-30T08:38:47.718Z,195.80
2022-11-30T08:41:16.891Z,100.53
2022-11-30T08:43:43.951Z,126.47
2022-11-30T08:46:42.431Z,216.35
2022-11-30T08:49:20.882Z,122.25
2022-11-30T08:52:15.877Z,129.32
2022-11-30T08:54:36.326Z,164.13
2022-11-30T08:57:03.216Z,172.95
2022-11-30T08:59:31.752Z,98.95
2022-11-30T09:01:58.868Z,90.55
2022-11-30T09:04:25.977Z,74.47
2022-11-30T09:06:58.592Z,80.18
2022-11-30T09:09:25.835Z,95.63
2022-11-30T09:11:52.823Z,102.65
2022-11-30T09:14:19.817Z,108.70
2022-11-30T09:16:46.886Z,83.00
2022-11-30T09:19:13.959Z,238.25
2022-11-30T09:21:40.902Z,182.20
2022-11-30T09:24:08.076Z,131.27
2022-11-30T09:26:35.017Z,149.85
2022-11-30T09:29:02.083Z,81.28
2022-11-30T09:31:29.144Z,118.03
2022-11-30T09:33:58.029Z,83.70
2022-11-30T09:36:29.933Z,61.95
2022-11-30T09:38:57.453Z,86.50
2022-11-30T09:41:45.724Z,76.55
2022-11-30T09:44:31.483Z,94.32
2022-11-30T09:47:02.715Z,67.70
2022-11-30T09:49:39.122Z,64.20
2022-11-30T09:52:26.404Z,70.68
2022-11-30T09:54:54.456Z,58.90
2022-11-30T09:57:26.952Z,68.03
2022-11-30T10:00:02.856Z,66.95
2022-11-30T10:02:33.824Z,63.58
2022-11-30T10:05:01.624Z,69.30
2022-11-30T10:08:10.236Z,73.82
2022-11-30T10:10:56.092Z,81.00
2022-11-30T10:13:27.924Z,72.30
2022-11-30T10:16:03.297Z,74.32
2022-11-30T10:18:54.703Z,62.05
2022-11-30T10:21:40.432Z,66.68
2022-11-30T10:24:33.748Z,70.97
2022-11-30T10:27:39.312Z,65.90
2022-11-30T10:30:16.029Z,60.90
2022-11-30T10:32:47.540Z,90.70
2022-11-30T10:35:37.120Z,88.80
2022-11-30T10:38:31.814Z,102.35
2022-11-30T10:41:16.008Z,61.15
2022-11-30T10:43:55.202Z,125.80
2022-11-30T10:46:29.038Z,58.22
2022-11-30T10:49:06.582Z,54.58
2022-11-30T10:51:37.647Z,56.85
2022-11-30T10:54:16.314Z,74.53
2022-11-30T10:56:43.133Z,70.15
2022-11-30T10:59:18.499Z,79.82
2022-11-30T11:01:45.576Z,103.25
2022-11-30T11:04:29.939Z,59.90
2022-11-30T11:06:59.351Z,65.10
2022-11-30T11:09:47.004Z,56.50
2022-11-30T11:12:27.558Z,61.20
2022-11-30T11:15:30.490Z,63.30
2022-11-30T11:18:22.703Z,78.40
2022-11-30T11:21:04.392Z,59.95
2022-11-30T11:23:39.629Z,67.93
2022-11-30T11:26:14.857Z,242.48
2022-11-30T11:28:45.880Z,64.43
2022-11-30T11:31:34.268Z,56.90
2022-11-30T11:34:01.548Z,59.45
2022-11-30T11:36:31.287Z,67.40
2022-11-30T11:38:59.179Z,51.72
2022-11-30T11:41:33.863Z,52.50
2022-11-30T11:44:09.748Z,62.15
2022-11-30T11:46:58.154Z,51.22
2022-11-30T11:49:31.684Z,56.67
2022-11-30T11:52:21.290Z,60.40
2022-11-30T11:54:56.836Z,49.90
2022-11-30T11:57:41.802Z,52.47
2022-11-30T12:00:21.000Z,52.75
2022-11-30T12:03:25.285Z,52.80
2022-11-30T12:05:58.417Z,67.43
2022-11-30T12:08:33.480Z,57.25
2022-11-30T12:11:17.716Z,54.97
2022-11-30T12:13:46.756Z,49.90
2022-11-30T12:16:29.934Z,60.73
2022-11-30T12:19:03.587Z,54.55
2022-11-30T12:21:36.703Z,56.95
2022-11-30T12:24:17.802Z,69.57
2022-11-30T12:26:49.399Z,94.28
2022-11-30T12:29:54.053Z,59.05
2022-11-30T12:32:27.429Z,69.45
2022-11-30T12:35:17.916Z,56.38
2022-11-30T12:37:50.734Z,53.03
2022-11-30T12:40:33.354Z,47.58
2022-11-30T12:43:22.714Z,60.25
2022-11-30T12:45:54.473Z,62.10
2022-11-30T12:48:40.270Z,44.15
2022-11-30T12:51:15.660Z,52.70
2022-11-30T12:53:49.413Z,63.83
2022-11-30T12:56:16.419Z,111.15
2022-11-30T12:59:02.592Z,51.13
2022-11-30T13:01:37.366Z,55.25
2022-11-30T13:04:14.432Z,78.15
2022-11-30T13:06:47.661Z,86.30
2022-11-30T13:09:32.132Z,44.65
2022-11-30T13:12:15.555Z,56.75
2022-11-30T13:14:43.439Z,45.30
2022-11-30T13:17:19.318Z,70.38
2022-11-30T13:20:14.325Z,56.58
2022-11-30T13:22:53.469Z,59.80
2022-11-30T13:26:06.825Z,74.32
2022-11-30T13:28:32.180Z,74.38
2022-11-30T13:31:02.207Z,62.20
2022-11-30T13:33:35.068Z,54.30
2022-11-30T13:36:07.462Z,102.97
2022-11-30T13:38:37.591Z,53.97
2022-11-30T13:41:08.322Z,47.88
2022-11-30T13:43:55.323Z,55.88
2022-11-30T13:46:23.975Z,47.80
2022-11-30T13:49:17.320Z,76.10
2022-11-30T13:51:44.246Z,51.40
2022-11-30T13:54:50.496Z,115.10
2022-11-30T13:57:29.423Z,89.28
2022-11-30T14:00:01.048Z,43.92
2022-11-30T14:02:34.484Z,48.08
2022-11-30T14:05:19.140Z,81.03
2022-11-30T14:07:50.116Z,45.03
2022-11-30T14:10:34.703Z,72.40
2022-11-30T14:13:10.802Z,77.22
2022-11-30T14:15:41.669Z,106.65
2022-11-30T14:18:08.390Z,127.68
2022-11-30T14:21:01.628Z,77.30
2022-11-30T14:23:31.387Z,78.35
2022-11-30T14:26:07.685Z,59.67
2022-11-30T14:29:02.189Z,55.63
2022-11-30T14:31:34.333Z,68.20
2022-11-30T14:34:16.634Z,51.22
2022-11-30T14:36:56.391Z,57.40
2022-11-30T14:39:25.937Z,85.55
2022-11-30T14:41:53.556Z,100.50
2022-11-30T14:44:20.647Z,112.57
2022-11-30T14:46:47.625Z,66.30
2022-11-30T14:49:24.214Z,77.70
2022-11-30T14:52:04.575Z,98.03
2022-11-30T14:54:37.704Z,92.57
2022-11-30T14:57:36.324Z,77.63
2022-11-30T15:00:05.824Z,95.95
2022-11-30T15:02:38.652Z,86.72
2022-11-30T15:05:08.692Z,116.30
2022-11-30T15:07:36.919Z,78.88
2022-11-30T15:10:14.519Z,118.88
2022-11-30T15:12:44.681Z,82.93
2022-11-30T15:15:17.045Z,103.45
2022-11-30T15:17:59.080Z,72.03
2022-11-30T15:20:27.868Z,91.00
2022-11-30T15:22:57.477Z,95.50
2022-11-30T15:25:30.145Z,67.18
2022-11-30T15:27:58.469Z,84.22
2022-11-30T15:30:25.263Z,69.63
2022-11-30T15:32:52.834Z,66.88
2022-11-30T15:35:30.769Z,65.18
2022-11-30T15:38:10.753Z,77.78
2022-11-30T15:40:37.791Z,63.30
2022-11-30T15:43:04.813Z,83.55
2022-11-30T15:45:35.279Z,93.75
2022-11-30T15:48:03.788Z,84.95
2022-11-30T15:50:37.595Z,85.15
2022-11-30T15:53:50.127Z,82.13
2022-11-30T15:56:25.786Z,106.18
2022-11-30T15:59:22.169Z,112.05
2022-11-30T16:02:08.893Z,74.28
2022-11-30T16:04:57.671Z,104.53
2022-11-30T16:07:35.679Z,85.90
2022-11-30T16:10:13.191Z,74.00
2022-11-30T16:12:41.276Z,110.25
2022-11-30T16:15:26.650Z,114.95
2022-11-30T16:17:57.056Z,91.63
2022-11-30T16:20:24.670Z,124.65
2022-11-30T16:22:51.859Z,105.72
2022-11-30T16:25:24.823Z,126.00
2022-11-30T16:27:52.531Z,86.97
2022-11-30T16:30:23.732Z,100.43
2022-11-30T16:32:50.909Z,77.00
2022-11-30T16:35:22.475Z,145.32
2022-11-30T16:37:50.483Z,104.95
2022-11-30T16:40:18.353Z,152.27
2022-11-30T16:42:45.278Z,89.13
2022-11-30T16:45:35.933Z,113.55
2022-11-30T16:48:03.076Z,93.47
2022-11-30T16:50:32.380Z,104.47
2022-11-30T16:52:59.475Z,82.80
2022-11-30T16:55:31.278Z,91.05
2022-11-30T16:57:58.616Z,85.55
2022-11-30T17:00:25.347Z,119.07
2022-11-30T17:02:56.934Z,86.30
2022-11-30T17:05:25.733Z,99.35
2022-11-30T17:07:52.802Z,123.22
2022-11-30T17:10:20.246Z,129.93
2022-11-30T17:12:47.357Z,114.32
2022-11-30T17:15:20.781Z,107.70
2022-11-30T17:17:47.983Z,134.15
2022-11-30T17:20:16.972Z,105.93
2022-11-30T17:22:44.621Z,97.43
2022-11-30T17:25:18.970Z,104.35
2022-11-30T17:27:45.895Z,105.05
2022-11-30T17:30:14.243Z,96.45
2022-11-30T17:32:41.056Z,100.13
2022-11-30T17:35:08.881Z,87.43
2022-11-30T17:37:36.184Z,110.22
2022-11-30T17:40:04.126Z,111.80
2022-11-30T17:42:31.151Z,164.95
2022-11-30T17:44:57.916Z,105.07
2022-11-30T17:47:24.820Z,100.65
2022-11-30T17:49:51.765Z,123.00
2022-11-30T17:52:18.711Z,97.03
2022-11-30T17:54:46.065Z,101.25
2022-11-30T17:57:13.233Z,100.63
2022-11-30T17:59:40.230Z,94.32
2022-11-30T18:02:09.527Z,102.20
2022-11-30T18:04:36.369Z,127.03
2022-11-30T18:07:03.106Z,90.90
2022-11-30T18:09:35.458Z,152.80
2022-11-30T18:12:06.244Z,106.50
2022-11-30T18:14:33.192Z,107.28
2022-11-30T18:17:01.100Z,92.10
2022-11-30T18:19:28.912Z,105.65
2022-11-30T18:21:56.091Z,102.40
2022-11-30T18:24:25.538Z,93.13
2022-11-30T18:29:19.719Z,90.97
2022-11-30T18:31:48.404Z,101.72
2022-11-30T18:34:15.518Z,93.43
2022-11-30T18:36:42.686Z,111.72
2022-11-30T18:39:09.755Z,95.20
2022-11-30T18:41:36.626Z,108.97
2022-11-30T18:44:03.865Z,96.18
2022-11-30T18:46:30.918Z,94.25
2022-11-30T18:48:59.416Z,133.35
2022-11-30T18:51:27.991Z,100.47
2022-11-30T18:53:59.977Z,86.35
2022-11-30T18:56:29.926Z,97.63
2022-11-30T18:58:58.800Z,102.32
2022-11-30T19:01:26.368Z,98.75
2022-11-30T19:04:02.084Z,84.95
2022-11-30T19:06:32.523Z,102.80
2022-11-30T19:09:05.302Z,96.80
2022-11-30T19:11:33.859Z,106.75
2022-11-30T19:14:01.839Z,96.35
2022-11-30T19:16:34.343Z,104.47
2022-11-30T19:19:05.126Z,103.40
2022-11-30T19:21:32.051Z,93.45
2022-11-30T19:23:59.644Z,131.02
2022-11-30T19:26:28.408Z,122.20
2022-11-30T19:28:57.487Z,114.10
2022-11-30T19:31:25.800Z,141.77
2022-11-30T19:33:54.253Z,132.55
2022-11-30T19:36:27.177Z,126.28
2022-11-30T19:38:54.366Z,132.82
2022-11-30T19:41:22.136Z,167.40
2022-11-30T19:44:01.064Z,165.23
2022-11-30T19:46:31.530Z,134.13
2022-11-30T19:49:01.351Z,173.00
2022-11-30T19:53:57.420Z,151.48
2022-11-30T19:56:26.772Z,196.60
2022-11-30T19:58:53.651Z,184.93
2022-11-30T20:01:23.138Z,161.25
2022-11-30T20:03:54.948Z,179.23
2022-11-30T20:06:25.639Z,143.90
2022-11-30T20:08:53.729Z,136.43
2022-11-30T20:11:20.713Z,161.80
2022-11-30T20:13:47.987Z,125.38
2022-11-30T20:16:16.936Z,141.98
2022-11-30T20:18:46.461Z,124.80
2022-11-30T20:21:16.834Z,182.50
2022-11-30T20:23:45.058Z,173.50
2022-11-30T20:26:16.100Z,172.73
2022-11-30T20:28:43.542Z,111.15
2022-11-30T20:31:11.820Z,154.68
2022-11-30T20:33:39.377Z,138.52
2022-11-30T20:36:08.157Z,126.32
2022-11-30T20:38:36.200Z,121.85
2022-11-30T20:41:03.572Z,117.18
2022-11-30T20:43:30.431Z,127.28
2022-11-30T20:45:57.466Z,127.68
2022-11-30T20:48:24.267Z,120.97
2022-11-30T20:51:13.997Z,107.35
2022-11-30T20:53:38.050Z,112.82
2022-11-30T20:56:05.283Z,107.38
2022-11-30T20:58:33.584Z,121.70
2022-11-30T21:01:00.868Z,107.38
2022-11-30T21:03:28.424Z,104.40
2022-11-30T21:05:55.174Z,119.32
2022-11-30T21:08:22.641Z,113.82
2022-11-30T21:10:49.619Z,109.85
2022-11-30T21:13:16.649Z,110.65
2022-11-30T21:15:43.737Z,117.53
2022-11-30T21:18:11.585Z,109.90
2022-11-30T21:20:38.625Z,120.93
2022-11-30T21:23:05.648Z,109.72
2022-11-30T21:25:35.122Z,112.90
2022-11-30T21:28:01.933Z,119.88
2022-11-30T21:30:28.573Z,108.18
2022-11-30T21:32:55.518Z,113.57
2022-11-30T21:35:22.823Z,110.93
2022-11-30T21:37:49.565Z,117.20
2022-11-30T21:40:17.499Z,134.88
2022-11-30T21:42:44.491Z,107.20
2022-11-30T21:45:12.436Z,125.18
2022-11-30T21:47:39.472Z,117.00
2022-11-30T21:50:06.946Z,118.13
2022-11-30T21:52:35.876Z,102.60
2022-11-30T21:55:02.715Z,104.77
2022-11-30T21:57:30.469Z,109.30
2022-11-30T21:59:57.484Z,100.35
2022-11-30T22:02:24.225Z,101.03
2022-11-30T22:04:51.274Z,99.57
2022-11-30T22:07:31.522Z,91.57
2022-11-30T22:09:58.831Z,87.50
2022-11-30T22:12:25.901Z,103.30
2022-11-30T22:14:53.014Z,94.18
2022-11-30T22:17:20.768Z,100.70
2022-11-30T22:19:47.763Z,111.95
2022-11-30T22:22:14.897Z,103.88
2022-11-30T22:24:42.307Z,112.63
2022-11-30T22:27:08.980Z,123.85
2022-11-30T22:29:36.056Z,119.70
2022-11-30T22:32:03.456Z,106.47
2022-11-30T22:34:30.871Z,111.00
2022-11-30T22:36:57.675Z,94.07
2022-11-30T22:39:24.620Z,104.45
2022-11-30T22:41:55.538Z,114.85
2022-11-30T22:44:23.248Z,100.65
2022-11-30T22:46:50.364Z,106.00
2022-11-30T22:49:21.244Z,102.95
2022-11-30T22:51:49.325Z,92.55
2022-11-30T22:54:16.630Z,97.03
2022-11-30T22:56:44.159Z,94.57
2022-11-30T22:59:12.538Z,91.28
2022-11-30T23:01:43.225Z,95.40
2022-11-30T23:04:13.171Z,102.65
2022-11-30T23:06:42.727Z,95.97
2022-11-30T23:09:13.630Z,97.60
2022-11-30T23:11:42.188Z,85.03
2022-11-30T23:14:09.787Z,104.47
2022-11-30T23:16:37.030Z,86.55
2022-11-30T23:19:05.147Z,80.28
2022-11-30T23:21:41.355Z,117.32
2022-11-30T23:24:12.069Z,102.03
2022-11-30T23:26:39.432Z,210.57
2022-11-30T23:29:10.397Z,326.88
2022-11-30T23:31:38.800Z,395.00
2022-11-30T23:34:08.346Z,469.80
2022-11-30T23:36:36.161Z,420.15
2022-11-30T23:39:12.264Z,341.95
2022-11-30T23:41:39.751Z,452.55
2022-11-30T23:44:07.290Z,379.73
2022-11-30T23:46:35.026Z,384.35
2022-11-30T23:49:02.122Z,351.98
2022-11-30T23:51:28.850Z,103.60
2022-11-30T23:53:55.941Z,180.93
2022-11-30T23:56:24.050Z,207.63
2022-11-30T23:58:51.218Z,141.05
